• Join FlightAware (Why Join?)
  • Login
  • US Flag 
01:38PM EDT


 

Airport Tracker/Info


-or-


 

Live Flight TrackerFlight Track Log ✈ IBE475 ✈ 15-May-2013 ✈ LEAS / OVD - LEMD / MAD

Flight Track Log - Related Links

Times and Time Zones

All times are in EDT time to prevent confusion due to time zone crossing. See the IBE475 flight status page for this flight to view local times or setup timezone preferences in your user account.

Time Position Orientation Groundspeed Altitude Reporting Facility
EDT Latitude Longitude Course Direction KTS MPH feet Rate Location/Type
08:22AM 41.4711 -4.3226 148° Southeast  Level Estimated
08:23AM 41.3902 -4.2590 149° Southeast  Level Estimated
08:24AM 41.3092 -4.1955 150° Southeast  Level Estimated
08:25AM 41.2281 -4.1322 150° Southeast  Level Estimated
08:26AM 41.1470 -4.0691 150° Southeast  Level Estimated
08:27AM 41.0659 -4.0061 150° Southeast  Level Estimated
08:28AM 40.9848 -3.9433 150° Southeast  Level Estimated
08:29AM 40.9036 -3.8806 150° Southeast  Level Estimated
08:30AM 40.8224 -3.8181 150° Southeast  Level Estimated
08:31AM 40.7411 -3.7557 150° Southeast  Level Estimated
08:32AM 40.6599 -3.6935 150° Southeast  Level Estimated
08:33AM 40.5785 -3.6314 150° Southeast  Level Estimated
08:34AM 40.4972 -3.5695 150° Southeast  Level Estimated
08:35AM 40.4936 -3.5668 150° Southeast  Level Estimated
08:36AM 40.4936 -3.5668 217° Southwest  Level Estimated
08:37AM 40.4936 -3.5668 217° Southwest  Level Estimated
08:38AM 40.4936 -3.5668 217° Southwest  Level Estimated
08:39AM 40.4936 -3.5668 217° Southwest  Level Estimated
08:40AM 40.4936 -3.5668 217° Southwest  Level Estimated
08:41AM 40.4936 -3.5668 217° Southwest  Level Estimated
08:42AM 40.4936 -3.5668 217° Southwest  Level Estimated
08:43AM 40.4936 -3.5668 217° Southwest  Level Estimated
08:44AM 40.4936 -3.5668 217° Southwest  Level Estimated
08:45AM 40.4936 -3.5668 217° Southwest  Level Estimated
08:46AM 40.4936 -3.5668 217° Southwest  Level Estimated
08:47AM 40.4936 -3.5668 217° Southwest  Level Estimated
08:48AM 40.4936 -3.5668 217° Southwest  Level Estimated
08:49AM 40.4936 -3.5668 217° Southwest  Level Estimated
08:50AM 40.4936 -3.5668 217° Southwest  Level Estimated